createdAt,value
2022-08-30T00:00:02.847Z,2.57
2022-08-30T00:02:32.185Z,3.00
2022-08-30T00:05:02.458Z,2.97
2022-08-30T00:07:31.996Z,2.80
2022-08-30T00:10:01.933Z,2.75
2022-08-30T00:12:32.736Z,2.67
2022-08-30T00:15:07.362Z,2.78
2022-08-30T00:17:38.616Z,3.13
2022-08-30T00:20:10.681Z,3.28
2022-08-30T00:22:40.586Z,3.10
2022-08-30T00:25:12.590Z,3.83
2022-08-30T00:27:42.848Z,3.35
2022-08-30T00:30:13.415Z,2.92
2022-08-30T00:32:43.547Z,3.70
2022-08-30T00:35:14.380Z,3.45
2022-08-30T00:37:46.888Z,2.90
2022-08-30T00:40:19.879Z,3.33
2022-08-30T00:42:58.096Z,2.85
2022-08-30T00:45:32.474Z,2.90
2022-08-30T00:48:02.640Z,3.58
2022-08-30T00:50:36.179Z,3.40
2022-08-30T00:53:09.456Z,3.03
2022-08-30T00:55:39.133Z,3.40
2022-08-30T00:58:20.126Z,2.92
2022-08-30T01:00:50.774Z,3.72
2022-08-30T01:03:20.401Z,3.17
2022-08-30T01:05:51.685Z,3.05
2022-08-30T01:08:22.386Z,3.90
2022-08-30T01:10:53.049Z,3.38
2022-08-30T01:13:23.511Z,3.58
2022-08-30T01:15:56.473Z,3.47
2022-08-30T01:18:28.096Z,3.33
2022-08-30T01:21:20.572Z,2.92
2022-08-30T01:23:53.848Z,3.17
2022-08-30T01:26:24.075Z,2.97
2022-08-30T01:28:56.353Z,3.60
2022-08-30T01:31:26.498Z,2.80
2022-08-30T01:33:56.010Z,3.08
2022-08-30T01:36:25.678Z,3.00
2022-08-30T01:38:59.120Z,3.45
2022-08-30T01:41:31.420Z,2.53
2022-08-30T01:44:02.810Z,2.85
2022-08-30T01:46:36.186Z,3.20
2022-08-30T01:49:08.395Z,2.58
2022-08-30T01:51:37.913Z,3.25
2022-08-30T01:54:07.571Z,2.60
2022-08-30T01:56:37.185Z,2.83
2022-08-30T01:59:06.794Z,3.25
2022-08-30T02:01:40.063Z,3.00
2022-08-30T02:04:12.351Z,3.60
2022-08-30T02:06:42.272Z,3.37
2022-08-30T02:09:11.830Z,3.63
2022-08-30T02:11:41.254Z,3.25
2022-08-30T02:14:10.517Z,3.30
2022-08-30T02:16:39.957Z,3.08
2022-08-30T02:19:09.972Z,3.23
2022-08-30T02:21:42.216Z,3.05
2022-08-30T02:24:11.464Z,3.42
2022-08-30T02:26:40.794Z,2.90
2022-08-30T02:29:10.179Z,3.40
2022-08-30T02:31:39.437Z,2.63
2022-08-30T02:34:08.719Z,3.03
2022-08-30T02:36:39.607Z,2.95
2022-08-30T02:39:09.361Z,2.80
2022-08-30T02:41:39.169Z,2.70
2022-08-30T02:44:10.091Z,2.70
2022-08-30T02:46:39.526Z,2.90
2022-08-30T02:49:32.539Z,2.63
2022-08-30T02:52:00.345Z,3.10
2022-08-30T02:54:32.468Z,2.90
2022-08-30T02:57:05.214Z,2.50
2022-08-30T02:59:37.851Z,2.75
2022-08-30T03:02:09.923Z,2.95
2022-08-30T03:04:39.494Z,3.05
2022-08-30T03:07:10.355Z,2.95
2022-08-30T03:09:39.796Z,2.70
2022-08-30T03:12:09.917Z,2.42
2022-08-30T03:14:41.001Z,2.42
2022-08-30T03:17:15.394Z,2.55
2022-08-30T03:19:46.220Z,3.20
2022-08-30T03:22:15.883Z,2.50
2022-08-30T03:24:45.303Z,2.72
2022-08-30T03:27:14.977Z,2.65
2022-08-30T03:29:44.274Z,2.55
2022-08-30T03:32:13.647Z,2.80
2022-08-30T03:34:42.979Z,2.53
2022-08-30T03:37:12.330Z,3.15
2022-08-30T03:39:41.613Z,3.13
2022-08-30T03:42:11.463Z,2.83
2022-08-30T03:44:41.205Z,2.53
2022-08-30T03:47:10.773Z,2.50
2022-08-30T03:49:40.247Z,2.60
2022-08-30T03:52:09.649Z,2.90
2022-08-30T03:54:40.233Z,3.55
2022-08-30T03:57:13.337Z,2.45
2022-08-30T03:59:49.844Z,2.70
2022-08-30T04:02:19.347Z,2.50
2022-08-30T04:04:49.012Z,2.88
2022-08-30T04:07:19.223Z,2.75
2022-08-30T04:09:49.175Z,2.60
2022-08-30T04:12:22.733Z,3.30
2022-08-30T04:14:52.522Z,3.45
2022-08-30T04:17:22.097Z,3.10
2022-08-30T04:19:51.404Z,2.85
2022-08-30T04:22:21.316Z,3.00
2022-08-30T04:24:50.593Z,2.90
2022-08-30T04:27:20.595Z,2.65
2022-08-30T04:29:50.054Z,2.75
2022-08-30T04:32:19.841Z,2.55
2022-08-30T04:34:49.553Z,2.75
2022-08-30T04:37:19.437Z,3.30
2022-08-30T04:39:49.581Z,2.65
2022-08-30T04:42:18.987Z,2.78
2022-08-30T04:44:48.361Z,2.55
2022-08-30T04:47:18.404Z,3.28
2022-08-30T04:49:47.910Z,2.60
2022-08-30T04:52:17.744Z,3.40
2022-08-30T04:54:47.017Z,2.47
2022-08-30T04:57:16.543Z,2.10
2022-08-30T04:59:45.791Z,2.50
2022-08-30T05:02:15.130Z,2.10
2022-08-30T05:05:04.933Z,3.00
2022-08-30T05:07:35.567Z,2.55
2022-08-30T05:10:10.498Z,2.95
2022-08-30T05:12:40.557Z,2.85
2022-08-30T05:15:10.860Z,3.17
2022-08-30T05:17:41.067Z,2.97
2022-08-30T05:20:12.423Z,2.58
2022-08-30T05:22:50.004Z,2.80
2022-08-30T05:25:28.384Z,3.35
2022-08-30T05:27:58.356Z,3.10
2022-08-30T05:30:29.150Z,2.90
2022-08-30T05:32:58.687Z,2.70
2022-08-30T05:35:27.990Z,3.03
2022-08-30T05:37:57.907Z,3.28
2022-08-30T05:40:27.944Z,3.00
2022-08-30T05:42:58.668Z,2.70
2022-08-30T05:45:28.098Z,2.60
2022-08-30T05:47:58.377Z,2.63
2022-08-30T05:50:27.726Z,3.08
2022-08-30T05:52:57.027Z,2.83
2022-08-30T05:55:26.311Z,2.90
2022-08-30T05:57:55.839Z,3.38
2022-08-30T06:00:25.241Z,3.10
2022-08-30T06:02:57.326Z,2.88
2022-08-30T06:05:26.975Z,2.77
2022-08-30T06:07:56.230Z,2.90
2022-08-30T06:10:25.907Z,3.22
2022-08-30T06:12:55.321Z,2.90
2022-08-30T06:15:24.756Z,3.05
2022-08-30T06:17:54.175Z,3.03
2022-08-30T06:20:33.312Z,2.85
2022-08-30T06:23:02.756Z,2.72
2022-08-30T06:25:41.112Z,2.47
2022-08-30T06:28:51.892Z,2.70
2022-08-30T06:31:23.488Z,2.93
2022-08-30T06:33:52.960Z,3.25
2022-08-30T06:36:25.509Z,2.85
2022-08-30T06:38:57.168Z,3.30
2022-08-30T06:41:29.632Z,2.97
2022-08-30T06:43:59.793Z,3.10
2022-08-30T06:46:35.160Z,2.63
2022-08-30T06:49:04.528Z,3.13
2022-08-30T06:51:37.170Z,2.88
2022-08-30T06:54:10.909Z,3.33
2022-08-30T06:56:55.533Z,3.30
2022-08-30T06:59:27.536Z,2.80
2022-08-30T07:01:57.652Z,3.22
2022-08-30T07:04:28.113Z,2.58
2022-08-30T07:06:57.454Z,2.97
2022-08-30T07:09:27.262Z,3.67
2022-08-30T07:11:56.721Z,2.83
2022-08-30T07:14:26.443Z,3.05
2022-08-30T07:16:55.740Z,2.97
2022-08-30T07:19:22.813Z,2.67
2022-08-30T07:21:52.688Z,2.70
2022-08-30T07:24:22.975Z,2.97
2022-08-30T07:26:53.767Z,3.45
2022-08-30T07:29:26.456Z,3.17
2022-08-30T07:31:55.838Z,2.95
2022-08-30T07:34:27.415Z,2.80
2022-08-30T07:36:56.871Z,2.60
2022-08-30T07:39:26.492Z,3.63
2022-08-30T07:41:55.812Z,2.97
2022-08-30T07:44:25.345Z,3.60
2022-08-30T07:46:54.738Z,2.93
2022-08-30T07:49:24.192Z,3.33
2022-08-30T07:51:53.596Z,3.15
2022-08-30T07:54:23.119Z,2.88
2022-08-30T07:56:55.814Z,2.55
2022-08-30T07:59:29.947Z,2.97
2022-08-30T08:02:00.178Z,3.00
2022-08-30T08:04:29.564Z,2.80
2022-08-30T08:06:58.870Z,3.47
2022-08-30T08:09:28.143Z,2.70
2022-08-30T08:11:57.543Z,2.70
2022-08-30T08:14:27.471Z,2.38
2022-08-30T08:16:56.794Z,3.17
2022-08-30T08:19:26.169Z,2.50
2022-08-30T08:22:15.668Z,2.97
2022-08-30T08:24:46.880Z,2.63
2022-08-30T08:27:16.379Z,2.70
2022-08-30T08:29:45.746Z,1.48
2022-08-30T08:32:15.216Z,1.40
2022-08-30T08:34:44.508Z,1.60
2022-08-30T08:37:13.817Z,1.23
2022-08-30T08:39:43.139Z,1.13
2022-08-30T08:42:24.618Z,1.67
2022-08-30T08:45:08.734Z,1.55
2022-08-30T08:47:55.280Z,1.70
2022-08-30T08:50:27.076Z,1.90
2022-08-30T08:53:24.944Z,1.50
2022-08-30T08:56:00.635Z,1.80
2022-08-30T08:58:33.398Z,1.40
2022-08-30T09:01:03.409Z,1.70
2022-08-30T09:03:41.532Z,1.60
2022-08-30T09:06:45.189Z,1.45
2022-08-30T09:09:16.949Z,1.88
2022-08-30T09:11:46.494Z,1.92
2022-08-30T09:14:25.469Z,1.83
2022-08-30T09:17:11.909Z,1.40
2022-08-30T09:19:42.986Z,1.88
2022-08-30T09:22:26.513Z,1.80
2022-08-30T09:25:03.157Z,2.00
2022-08-30T09:27:40.390Z,1.95
2022-08-30T09:30:19.370Z,1.43
2022-08-30T09:33:01.071Z,1.77
2022-08-30T09:35:46.140Z,1.85
2022-08-30T09:38:24.582Z,1.75
2022-08-30T09:40:59.594Z,2.03
2022-08-30T09:43:34.993Z,1.40
2022-08-30T09:46:04.704Z,1.73
2022-08-30T09:48:51.980Z,1.95
2022-08-30T09:51:42.620Z,2.00
2022-08-30T09:54:25.510Z,2.00
2022-08-30T09:57:14.658Z,1.83
2022-08-30T09:59:51.913Z,2.55
2022-08-30T10:02:33.908Z,2.38
2022-08-30T10:05:15.723Z,2.40
2022-08-30T10:07:54.322Z,1.98
2022-08-30T10:10:53.530Z,2.20
2022-08-30T10:13:37.025Z,1.60
2022-08-30T10:16:37.609Z,2.25
2022-08-30T10:19:29.899Z,2.05
2022-08-30T10:22:07.782Z,2.15
2022-08-30T10:24:41.647Z,2.27
2022-08-30T10:27:42.922Z,1.90
2022-08-30T10:30:16.915Z,2.03
2022-08-30T10:32:49.404Z,2.10
2022-08-30T10:35:22.538Z,2.22
2022-08-30T10:38:09.839Z,2.40
2022-08-30T10:40:55.752Z,1.92
2022-08-30T10:43:39.371Z,2.17
2022-08-30T10:46:15.235Z,2.35
2022-08-30T10:51:40.306Z,2.50
2022-08-30T10:54:18.479Z,2.20
2022-08-30T10:56:51.470Z,2.33
2022-08-30T10:59:21.713Z,2.28
2022-08-30T11:02:32.791Z,2.40
2022-08-30T11:05:18.631Z,2.73
2022-08-30T11:08:24.508Z,2.17
2022-08-30T11:10:59.231Z,2.58
2022-08-30T11:13:33.092Z,2.00
2022-08-30T11:16:07.178Z,2.20
2022-08-30T11:18:45.860Z,2.10
2022-08-30T11:21:26.295Z,1.85
2022-08-30T11:24:12.152Z,2.60
2022-08-30T11:26:48.410Z,2.30
2022-08-30T11:29:31.769Z,1.88
2022-08-30T11:32:22.338Z,1.87
2022-08-30T11:34:59.419Z,2.25
2022-08-30T11:37:45.352Z,1.70
2022-08-30T11:40:25.131Z,2.55
2022-08-30T11:42:58.016Z,2.10
2022-08-30T11:45:28.529Z,2.10
2022-08-30T11:48:10.274Z,2.40
2022-08-30T11:50:53.551Z,2.15
2022-08-30T11:53:44.978Z,1.80
2022-08-30T11:56:23.339Z,1.67
2022-08-30T11:58:59.765Z,2.03
2022-08-30T12:01:49.737Z,2.10
2022-08-30T12:04:20.872Z,2.10
2022-08-30T12:06:54.941Z,2.50
2022-08-30T12:09:26.891Z,1.92
2022-08-30T12:12:13.034Z,1.87
2022-08-30T12:14:55.023Z,1.85
2022-08-30T12:18:02.615Z,1.90
2022-08-30T12:20:41.918Z,2.85
2022-08-30T12:23:22.578Z,2.03
2022-08-30T12:25:52.807Z,2.20
2022-08-30T12:28:29.158Z,2.50
2022-08-30T12:30:58.402Z,2.40
2022-08-30T12:33:36.604Z,1.60
2022-08-30T12:36:15.732Z,2.42
2022-08-30T12:38:45.171Z,1.80
2022-08-30T12:41:22.795Z,2.50
2022-08-30T12:43:56.040Z,2.42
2022-08-30T12:46:25.568Z,1.95
2022-08-30T12:48:55.164Z,2.30
2022-08-30T12:51:41.133Z,1.97
2022-08-30T12:54:32.317Z,2.20
2022-08-30T12:57:19.072Z,1.92
2022-08-30T12:59:59.683Z,2.22
2022-08-30T13:02:52.214Z,2.35
2022-08-30T13:05:48.043Z,2.43
2022-08-30T13:08:34.604Z,2.00
2022-08-30T13:11:11.321Z,1.83
2022-08-30T13:13:52.269Z,2.22
2022-08-30T13:16:22.054Z,2.22
2022-08-30T13:19:15.821Z,2.17
2022-08-30T13:21:54.785Z,2.63
2022-08-30T13:24:25.639Z,2.45
2022-08-30T13:26:57.122Z,2.00
2022-08-30T13:29:29.457Z,2.20
2022-08-30T13:31:59.336Z,2.70
2022-08-30T13:34:33.119Z,1.90
2022-08-30T13:37:07.248Z,2.53
2022-08-30T13:39:57.656Z,2.22
2022-08-30T13:42:32.320Z,2.10
2022-08-30T13:45:02.309Z,2.20
2022-08-30T13:47:35.625Z,2.03
2022-08-30T13:50:08.046Z,2.38
2022-08-30T13:52:39.343Z,2.85
2022-08-30T13:55:09.457Z,2.10
2022-08-30T13:57:56.051Z,2.03
2022-08-30T14:00:26.960Z,2.15
2022-08-30T14:02:59.884Z,2.17
2022-08-30T14:05:50.252Z,2.25
2022-08-30T14:11:19.531Z,2.27
2022-08-30T14:16:45.121Z,2.03
2022-08-30T14:19:15.344Z,2.20
2022-08-30T14:21:48.746Z,2.20
2022-08-30T14:24:19.931Z,1.80
2022-08-30T14:26:52.693Z,1.98
2022-08-30T14:29:26.393Z,2.20
2022-08-30T14:32:00.107Z,2.00
2022-08-30T14:34:29.580Z,1.98
2022-08-30T14:36:59.489Z,2.53
2022-08-30T14:39:28.976Z,2.45
2022-08-30T14:41:58.480Z,2.30
2022-08-30T14:44:54.785Z,2.22
2022-08-30T14:47:26.866Z,2.33
2022-08-30T14:50:01.011Z,2.13
2022-08-30T14:52:33.967Z,2.42
2022-08-30T14:55:09.073Z,1.90
2022-08-30T14:57:39.826Z,2.25
2022-08-30T15:00:12.183Z,2.28
2022-08-30T15:02:41.811Z,2.60
2022-08-30T15:05:11.438Z,2.28
2022-08-30T15:07:40.680Z,2.53
2022-08-30T15:10:10.707Z,3.20
2022-08-30T15:12:41.747Z,3.60
2022-08-30T15:15:11.503Z,3.60
2022-08-30T15:17:40.795Z,3.75
2022-08-30T15:20:10.811Z,3.10
2022-08-30T15:22:40.598Z,2.70
2022-08-30T15:25:10.909Z,2.72
2022-08-30T15:27:40.503Z,2.40
2022-08-30T15:30:11.084Z,2.90
2022-08-30T15:32:40.649Z,2.78
2022-08-30T15:35:10.578Z,2.92
2022-08-30T15:37:40.425Z,3.13
2022-08-30T15:40:10.451Z,2.80
2022-08-30T15:42:39.891Z,3.58
2022-08-30T15:45:12.172Z,3.30
2022-08-30T15:47:41.621Z,3.08
2022-08-30T15:50:12.021Z,3.17
2022-08-30T15:52:43.577Z,2.60
2022-08-30T15:55:13.135Z,2.60
2022-08-30T15:57:42.995Z,2.78
2022-08-30T16:00:13.206Z,2.75
2022-08-30T16:02:42.537Z,2.78
2022-08-30T16:05:12.719Z,2.30
2022-08-30T16:07:42.457Z,3.00
2022-08-30T16:10:12.234Z,2.78
2022-08-30T16:12:41.949Z,2.60
2022-08-30T16:15:11.949Z,7.32
2022-08-30T16:17:41.268Z,7.33
2022-08-30T16:20:12.006Z,3.03
2022-08-30T16:22:45.971Z,2.78
2022-08-30T16:25:16.489Z,2.78
2022-08-30T16:27:45.758Z,3.00
2022-08-30T16:30:16.091Z,3.33
2022-08-30T16:32:45.949Z,2.80
2022-08-30T16:35:15.385Z,2.65
2022-08-30T16:37:44.661Z,2.70
2022-08-30T16:40:14.381Z,3.83
2022-08-30T16:42:43.754Z,2.70
2022-08-30T16:45:13.425Z,2.70
2022-08-30T16:47:42.756Z,3.35
2022-08-30T16:50:16.723Z,3.65
2022-08-30T16:52:47.216Z,3.05
2022-08-30T16:55:16.465Z,3.00
2022-08-30T16:57:46.600Z,3.17
2022-08-30T17:00:16.921Z,2.67
2022-08-30T17:02:54.072Z,2.47
2022-08-30T17:05:25.140Z,2.47
2022-08-30T17:07:54.614Z,2.37
2022-08-30T17:10:26.391Z,2.22
2022-08-30T17:13:02.439Z,2.58
2022-08-30T17:15:31.972Z,2.45
2022-08-30T17:18:01.286Z,2.60
2022-08-30T17:20:31.756Z,4.17
2022-08-30T17:23:02.824Z,2.30
2022-08-30T17:25:34.142Z,2.70
2022-08-30T17:28:03.574Z,2.38
2022-08-30T17:30:34.995Z,2.53
2022-08-30T17:33:05.195Z,2.40
2022-08-30T17:35:34.789Z,2.47
2022-08-30T17:38:04.646Z,2.60
2022-08-30T17:40:34.192Z,2.40
2022-08-30T17:43:03.594Z,2.50
2022-08-30T17:45:33.017Z,2.47
2022-08-30T17:48:04.023Z,2.65
2022-08-30T17:50:33.515Z,2.95
2022-08-30T17:53:02.825Z,2.22
2022-08-30T17:55:32.662Z,2.70
2022-08-30T17:58:03.162Z,2.70
2022-08-30T18:00:32.871Z,2.78
2022-08-30T18:03:02.326Z,3.03
2022-08-30T18:05:31.768Z,2.28
2022-08-30T18:08:03.639Z,2.42
2022-08-30T18:10:34.378Z,2.67
2022-08-30T18:13:04.088Z,2.33
2022-08-30T18:15:34.265Z,3.00
2022-08-30T18:18:04.259Z,2.47
2022-08-30T18:20:34.626Z,2.42
2022-08-30T18:23:03.982Z,2.33
2022-08-30T18:25:33.682Z,2.35
2022-08-30T18:28:04.326Z,2.70
2022-08-30T18:30:37.666Z,2.67
2022-08-30T18:33:09.359Z,2.47
2022-08-30T18:35:42.917Z,2.40
2022-08-30T18:38:15.022Z,2.17
2022-08-30T18:40:44.472Z,2.92
2022-08-30T18:43:14.664Z,2.40
2022-08-30T18:45:48.906Z,2.42
2022-08-30T18:48:19.505Z,2.20
2022-08-30T18:50:49.518Z,2.72
2022-08-30T18:53:28.538Z,2.42
2022-08-30T18:55:59.827Z,2.60
2022-08-30T18:58:29.265Z,2.50
2022-08-30T19:00:58.528Z,2.30
2022-08-30T19:03:27.904Z,2.65
2022-08-30T19:06:08.086Z,2.47
2022-08-30T19:08:42.192Z,2.88
2022-08-30T19:11:15.125Z,2.30
2022-08-30T19:13:44.416Z,2.43
2022-08-30T19:16:13.711Z,2.58
2022-08-30T19:18:43.247Z,2.20
2022-08-30T19:21:14.780Z,2.88
2022-08-30T19:23:46.357Z,2.50
2022-08-30T19:26:16.732Z,2.50
2022-08-30T19:28:46.206Z,2.63
2022-08-30T19:31:15.490Z,2.20
2022-08-30T19:33:45.143Z,2.50
2022-08-30T19:36:14.409Z,2.72
2022-08-30T19:38:44.552Z,3.10
2022-08-30T19:41:14.412Z,3.08
2022-08-30T19:43:43.930Z,3.17
2022-08-30T19:46:13.421Z,2.45
2022-08-30T19:48:43.245Z,2.40
2022-08-30T19:51:14.272Z,2.23
2022-08-30T19:53:44.291Z,2.28
2022-08-30T19:56:15.016Z,2.55
2022-08-30T19:58:44.455Z,2.42
2022-08-30T20:01:14.683Z,2.50
2022-08-30T20:04:02.505Z,3.03
2022-08-30T20:06:32.846Z,2.55
2022-08-30T20:09:02.970Z,2.63
2022-08-30T20:11:32.322Z,3.25
2022-08-30T20:14:01.765Z,2.58
2022-08-30T20:16:37.283Z,2.60
2022-08-30T20:19:09.198Z,3.00
2022-08-30T20:21:39.459Z,3.10
2022-08-30T20:24:09.792Z,3.00
2022-08-30T20:26:40.089Z,3.03
2022-08-30T20:29:10.423Z,3.17
2022-08-30T20:31:39.771Z,2.58
2022-08-30T20:34:09.150Z,2.45
2022-08-30T20:36:40.456Z,2.92
2022-08-30T20:39:10.212Z,2.63
2022-08-30T20:41:45.674Z,2.53
2022-08-30T20:44:15.908Z,2.75
2022-08-30T20:46:49.555Z,2.67
2022-08-30T20:49:19.710Z,2.65
2022-08-30T20:51:52.951Z,2.53
2022-08-30T20:54:23.799Z,2.93
2022-08-30T20:56:53.110Z,2.70
2022-08-30T20:59:22.718Z,2.90
2022-08-30T21:01:54.124Z,2.95
2022-08-30T21:04:24.418Z,2.55
2022-08-30T21:06:55.113Z,2.93
2022-08-30T21:09:24.439Z,3.40
2022-08-30T21:11:54.020Z,2.90
2022-08-30T21:14:23.847Z,3.10
2022-08-30T21:16:53.203Z,3.20
2022-08-30T21:19:22.515Z,2.77
2022-08-30T21:21:51.834Z,2.88
2022-08-30T21:24:21.502Z,3.22
2022-08-30T21:26:51.977Z,2.85
2022-08-30T21:29:21.232Z,3.00
2022-08-30T21:31:51.131Z,3.10
2022-08-30T21:34:20.937Z,3.40
2022-08-30T21:36:47.975Z,3.20
2022-08-30T21:39:29.741Z,3.30
2022-08-30T21:41:59.662Z,3.33
2022-08-30T21:44:29.868Z,3.20
2022-08-30T21:46:59.227Z,3.17
2022-08-30T21:49:28.505Z,3.20
2022-08-30T21:51:57.872Z,3.08
2022-08-30T21:54:31.636Z,3.35
2022-08-30T21:57:05.075Z,3.10
2022-08-30T21:59:34.478Z,3.10
2022-08-30T22:02:03.720Z,3.25
2022-08-30T22:04:33.137Z,4.13
2022-08-30T22:07:03.271Z,4.15
2022-08-30T22:09:32.954Z,3.40
2022-08-30T22:12:02.311Z,3.40
2022-08-30T22:14:33.435Z,3.30
2022-08-30T22:17:02.854Z,3.40
2022-08-30T22:19:33.753Z,4.10
2022-08-30T22:22:03.988Z,3.83
2022-08-30T22:24:33.656Z,3.40
2022-08-30T22:27:05.144Z,3.55
2022-08-30T22:29:34.486Z,3.40
2022-08-30T22:32:03.912Z,4.13
2022-08-30T22:34:33.769Z,3.50
2022-08-30T22:37:03.016Z,3.30
2022-08-30T22:39:32.412Z,4.10
2022-08-30T22:42:01.914Z,3.28
2022-08-30T22:44:31.382Z,3.15
2022-08-30T22:47:00.680Z,3.30
2022-08-30T22:49:30.311Z,3.47
2022-08-30T22:51:59.577Z,3.28
2022-08-30T22:54:30.478Z,3.35
2022-08-30T22:56:59.764Z,3.28
2022-08-30T22:59:31.362Z,3.00
2022-08-30T23:02:03.206Z,3.15
2022-08-30T23:04:33.028Z,3.55
2022-08-30T23:07:05.167Z,3.72
2022-08-30T23:09:34.655Z,3.75
2022-08-30T23:12:06.361Z,3.50
2022-08-30T23:14:36.080Z,3.45
2022-08-30T23:17:05.379Z,3.45
2022-08-30T23:19:34.635Z,3.60
2022-08-30T23:22:04.090Z,3.15
2022-08-30T23:24:49.109Z,3.37
2022-08-30T23:27:31.148Z,3.40
2022-08-30T23:30:12.995Z,3.15
2022-08-30T23:32:54.809Z,3.20
2022-08-30T23:35:36.681Z,3.53
2022-08-30T23:38:20.519Z,3.33
2022-08-30T23:41:02.324Z,3.30
2022-08-30T23:43:44.147Z,3.55
2022-08-30T23:46:26.110Z,3.65
2022-08-30T23:49:07.953Z,3.22
2022-08-30T23:51:51.630Z,3.07
2022-08-30T23:54:33.569Z,3.28
2022-08-30T23:57:15.353Z,3.33
2022-08-30T23:59:57.313Z,3.08
